Time;durP1;ratioP1;P1;durP2;ratioP2;P2;SDS_P1;SDS_P2;PMS_P1;PMS_P2;Temp;Humidity;BMP_temperature;BMP_pressure;BME280_temperature;BME280_humidity;BME280_pressure;Samples;Min_cycle;Max_cycle;Signal;HPM_P1;HPM_P2
2021/09/10 00:01:19;;;;;;;36.87;16.07;;;;;;;10.86;73.48;99101.16;2225559;79;20964;-72
2021/09/10 00:04:21;;;;;;;39.33;19.00;;;;;;;10.75;72.54;99104.38;2225525;79;21506;-72
2021/09/10 00:07:22;;;;;;;35.60;18.32;;;;;;;10.72;72.79;99104.56;2225667;80;20969;-70
2021/09/10 00:10:23;;;;;;;37.13;18.70;;;;;;;10.76;72.85;99102.63;2225548;79;20925;-72
2021/09/10 00:13:25;;;;;;;39.48;18.35;;;;;;;10.72;73.17;99095.38;2225679;79;20933;-72
2021/09/10 00:16:26;;;;;;;37.88;17.70;;;;;;;10.78;72.63;99097.28;2225544;79;21016;-73
2021/09/10 00:19:28;;;;;;;38.70;18.10;;;;;;;10.80;72.73;99100.17;2225427;80;21515;-69
2021/09/10 00:22:29;;;;;;;38.25;18.52;;;;;;;10.86;72.86;99102.47;2225314;79;21008;-72
2021/09/10 00:25:31;;;;;;;38.28;19.15;;;;;;;10.86;73.17;99098.53;2225525;79;20964;-73
2021/09/10 00:28:32;;;;;;;39.57;19.00;;;;;;;10.90;73.21;99105.75;2225685;80;20968;-72
2021/09/10 00:31:33;;;;;;;37.33;17.73;;;;;;;10.88;73.22;99104.52;2225569;79;20972;-70
2021/09/10 00:34:35;;;;;;;31.17;15.93;;;;;;;10.83;73.09;99103.97;2225520;79;21007;-68
2021/09/10 00:37:36;;;;;;;34.25;16.75;;;;;;;10.80;73.46;99105.42;2225528;79;21011;-73
2021/09/10 00:40:38;;;;;;;31.50;15.45;;;;;;;10.71;73.75;99101.55;2225537;79;21448;-72
2021/09/10 00:43:39;;;;;;;42.50;20.75;;;;;;;10.68;73.40;99099.59;2214341;79;21096;-73
2021/09/10 00:46:40;;;;;;;38.83;19.10;;;;;;;10.64;73.76;99104.63;2212043;80;21100;-72
2021/09/10 00:49:42;;;;;;;36.33;18.83;;;;;;;10.64;73.99;99099.38;2212436;79;20928;-69
2021/09/10 00:52:43;;;;;;;35.65;18.60;;;;;;;10.67;73.91;99101.34;2212258;79;20961;-70
2021/09/10 00:55:45;;;;;;;34.97;17.70;;;;;;;10.67;73.87;99109.22;2212074;79;20993;-71
2021/09/10 00:58:46;;;;;;;34.67;17.90;;;;;;;10.64;73.63;99105.45;2212456;79;21016;-70
2021/09/10 01:01:48;;;;;;;35.23;16.70;;;;;;;10.61;73.92;99108.73;2212362;79;21035;-74
2021/09/10 01:04:49;;;;;;;40.58;20.35;;;;;;;10.54;74.13;99104.30;2212458;79;20973;-70
2021/09/10 01:07:51;;;;;;;39.88;19.60;;;;;;;10.53;74.53;99092.97;2212350;79;20937;-73
2021/09/10 01:10:52;;;;;;;41.23;19.70;;;;;;;10.54;74.31;99099.91;2212326;79;21492;-68
2021/09/10 01:13:54;;;;;;;38.35;18.70;;;;;;;10.62;74.42;99106.50;2211821;80;21563;-71
2021/09/10 01:16:56;;;;;;;38.23;18.30;;;;;;;10.60;74.22;99100.00;2212205;79;21005;-73
2021/09/10 01:19:57;;;;;;;38.70;19.57;;;;;;;10.57;74.49;99098.88;2212087;79;21095;-73
2021/09/10 01:22:59;;;;;;;39.73;19.98;;;;;;;10.52;74.60;99099.61;2212302;80;21007;-70
2021/09/10 01:26:01;;;;;;;37.70;19.67;;;;;;;10.56;74.84;99098.52;2212251;79;20984;-73
2021/09/10 01:29:02;;;;;;;36.53;18.77;;;;;;;10.48;74.28;99101.55;2212593;79;20976;-71
2021/09/10 01:32:03;;;;;;;34.53;18.25;;;;;;;10.43;74.41;99095.73;2212061;79;20979;-71
2021/09/10 01:35:05;;;;;;;36.03;17.90;;;;;;;10.39;74.44;99093.73;2212153;79;20965;-70
2021/09/10 01:38:06;;;;;;;36.45;16.97;;;;;;;10.34;74.16;99097.55;2212034;79;21040;-69
2021/09/10 01:41:08;;;;;;;37.67;17.60;;;;;;;10.29;74.45;99093.84;2212012;79;21563;-72
2021/09/10 01:44:09;;;;;;;36.63;17.90;;;;;;;10.32;74.21;99095.45;2211676;79;21111;-72
2021/09/10 01:47:10;;;;;;;38.17;19.75;;;;;;;10.25;74.27;99093.63;2212047;79;21029;-72
2021/09/10 01:50:12;;;;;;;39.07;21.37;;;;;;;10.23;74.55;99092.41;2212368;79;20980;-70
2021/09/10 01:53:13;;;;;;;38.33;18.67;;;;;;;10.22;74.43;99097.73;2212190;80;21020;-74
2021/09/10 01:56:15;;;;;;;32.53;15.75;;;;;;;10.16;74.40;99096.30;2212118;79;20993;-73
2021/09/10 01:59:16;;;;;;;33.10;16.10;;;;;;;10.11;74.42;99100.09;2212215;79;20946;-71
2021/09/10 02:02:18;;;;;;;38.60;17.93;;;;;;;10.10;74.16;99093.16;2212236;79;21527;-73
2021/09/10 02:05:20;;;;;;;61.53;33.08;;;;;;;10.08;74.36;99102.89;2212196;79;20953;-72
2021/09/10 02:08:21;;;;;;;42.88;21.65;;;;;;;10.01;74.65;99099.30;2211923;79;21139;-71
2021/09/10 02:11:22;;;;;;;42.20;22.65;;;;;;;10.04;74.83;99099.58;2212167;79;20964;-74
2021/09/10 02:14:24;;;;;;;33.87;16.60;;;;;;;10.05;74.62;99097.34;2211927;79;21034;-71
2021/09/10 02:17:25;;;;;;;32.03;14.50;;;;;;;10.00;74.19;99092.83;2212305;79;21523;-72
2021/09/10 02:20:27;;;;;;;34.40;15.37;;;;;;;9.88;73.88;99091.70;2212520;79;20968;-71
2021/09/10 02:23:28;;;;;;;33.75;15.93;;;;;;;9.79;74.35;99098.75;2211960;79;21021;-71
2021/09/10 02:26:30;;;;;;;31.12;15.08;;;;;;;9.80;74.64;99098.67;2212286;79;20977;-73
2021/09/10 02:29:32;;;;;;;31.60;14.63;;;;;;;9.69;74.78;99099.23;2212397;79;21043;-72
2021/09/10 02:32:33;;;;;;;33.48;16.05;;;;;;;9.66;74.79;99097.25;2212145;79;21579;-73
2021/09/10 02:35:35;;;;;;;31.55;15.25;;;;;;;9.65;75.45;99099.00;2211904;79;21092;-70
2021/09/10 02:38:36;;;;;;;34.38;15.18;;;;;;;9.70;75.67;99099.62;2212024;79;21040;-73
2021/09/10 02:41:38;;;;;;;35.88;15.90;;;;;;;9.73;75.77;99100.41;2212031;80;21030;-74
2021/09/10 02:44:39;;;;;;;33.53;16.50;;;;;;;9.77;75.46;99093.60;2211882;79;21100;-73
2021/09/10 02:47:40;;;;;;;35.65;16.67;;;;;;;9.77;75.23;99094.91;2211990;80;21069;-72
2021/09/10 02:50:42;;;;;;;36.65;18.85;;;;;;;9.71;75.07;99092.59;2212126;79;21060;-72
2021/09/10 02:53:43;;;;;;;29.75;13.98;;;;;;;9.68;75.34;99094.94;2212003;79;21044;-70
2021/09/10 02:56:45;;;;;;;30.80;13.80;;;;;;;9.70;75.33;99089.14;2212219;79;20988;-74
2021/09/10 02:59:46;;;;;;;34.83;15.40;;;;;;;9.66;75.08;99088.92;2212246;79;20961;-73
2021/09/10 03:02:48;;;;;;;32.33;14.77;;;;;;;9.54;75.08;99089.11;2212221;79;21084;-72
2021/09/10 03:05:49;;;;;;;32.70;13.90;;;;;;;9.50;75.23;99091.98;2211946;80;21073;-71
2021/09/10 03:08:53;;;;;;;32.28;15.28;;;;;;;9.45;75.22;99094.84;2211602;80;21556;-73
2021/09/10 03:11:54;;;;;;;32.85;14.65;;;;;;;9.47;75.81;99092.14;2212090;79;21103;-71
2021/09/10 03:14:56;;;;;;;35.83;17.17;;;;;;;9.46;75.32;99093.89;2211872;80;21048;-71
2021/09/10 03:17:57;;;;;;;46.45;24.43;;;;;;;9.44;75.19;99098.38;2211914;79;21583;-73
2021/09/10 03:20:59;;;;;;;45.43;22.70;;;;;;;9.42;75.25;99094.14;2211847;79;21072;-72
2021/09/10 03:24:01;;;;;;;52.03;24.47;;;;;;;9.35;75.28;99101.02;2211700;79;21568;-73
2021/09/10 03:27:02;;;;;;;45.13;21.40;;;;;;;9.35;75.59;99096.22;2212326;80;21013;-70
2021/09/10 03:30:04;;;;;;;53.83;25.48;;;;;;;9.38;76.04;99096.53;2212131;79;21107;-72
2021/09/10 03:33:05;;;;;;;46.07;22.77;;;;;;;9.44;76.20;99091.83;2212166;80;21559;-74
2021/09/10 03:36:07;;;;;;;46.63;22.42;;;;;;;9.59;75.95;99089.34;2212286;80;21107;-72
2021/09/10 03:39:08;;;;;;;48.33;24.80;;;;;;;9.68;76.35;99090.14;2212179;80;21048;-72
2021/09/10 03:42:09;;;;;;;36.05;16.45;;;;;;;9.65;76.09;99089.84;2212816;79;20964;-71
2021/09/10 03:45:11;;;;;;;30.88;14.50;;;;;;;9.65;76.19;99089.84;2225265;80;20945;-72
2021/09/10 03:48:12;;;;;;;34.13;16.27;;;;;;;9.68;75.51;99091.45;2225687;79;20933;-72
2021/09/10 03:51:14;;;;;;;48.73;22.47;;;;;;;9.57;75.58;99089.86;2225598;79;21010;-72
2021/09/10 03:54:15;;;;;;;98.37;39.25;;;;;;;9.52;75.95;99091.42;2225246;79;21531;-74
2021/09/10 03:57:17;;;;;;;65.32;26.60;;;;;;;9.50;76.23;99090.19;2225226;79;21019;-74
2021/09/10 04:00:18;;;;;;;50.43;20.80;;;;;;;9.50;76.21;99088.89;2225310;79;20937;-72
2021/09/10 04:03:20;;;;;;;42.55;19.05;;;;;;;9.48;76.36;99089.89;2225270;79;21024;-72
2021/09/10 04:06:21;;;;;;;38.55;17.62;;;;;;;9.47;76.98;99092.14;2225297;79;20988;-73
2021/09/10 04:09:22;;;;;;;41.02;19.17;;;;;;;9.49;76.94;99095.52;2225260;79;20972;-73
2021/09/10 04:12:24;;;;;;;55.17;24.43;;;;;;;9.55;76.94;99093.87;2225429;79;20933;-73
2021/09/10 04:15:26;;;;;;;52.43;24.12;;;;;;;9.59;77.04;99094.09;2225486;79;21020;-72
2021/09/10 04:18:28;;;;;;;;;;;;;;;9.69;76.79;99090.06;2227928;79;20976;-72
2021/09/10 04:21:29;;;;;;;42.75;20.65;;;;;;;9.73;76.66;99091.23;2225308;80;20389;-72
2021/09/10 04:24:31;;;;;;;34.00;15.40;;;;;;;9.77;76.67;99092.30;2225085;80;21020;-73
2021/09/10 04:27:32;;;;;;;32.95;16.07;;;;;;;9.82;76.34;99089.42;2225244;80;21514;-73
2021/09/10 04:30:34;;;;;;;32.67;15.20;;;;;;;9.78;76.22;99092.66;2225416;79;20964;-73
2021/09/10 04:33:35;;;;;;;43.73;19.07;;;;;;;9.66;76.19;99092.02;2225643;79;20954;-73
2021/09/10 04:36:37;;;;;;;51.60;26.00;;;;;;;9.66;76.68;99091.54;2225556;79;21444;-72
2021/09/10 04:39:38;;;;;;;44.40;21.10;;;;;;;9.81;76.84;99094.27;2225547;79;20992;-72
2021/09/10 04:42:40;;;;;;;52.80;22.85;;;;;;;9.88;76.80;99097.80;2223732;80;21471;-72
2021/09/10 04:45:41;;;;;;;34.20;15.47;;;;;;;9.95;76.63;99097.47;2212050;80;21017;-73
2021/09/10 04:48:43;;;;;;;32.35;15.05;;;;;;;9.98;76.35;99096.82;2211924;79;20996;-72
2021/09/10 04:51:44;;;;;;;32.08;15.50;;;;;;;9.97;76.53;99099.08;2212270;79;21029;-70
2021/09/10 04:54:46;;;;;;;36.50;16.23;;;;;;;10.05;76.53;99098.17;2212022;79;21110;-73
2021/09/10 04:57:47;;;;;;;54.63;24.77;;;;;;;10.21;76.88;99094.72;2211674;79;21037;-72
2021/09/10 05:00:49;;;;;;;51.93;21.13;;;;;;;10.39;76.85;99098.98;2212265;79;21091;-70
2021/09/10 05:03:50;;;;;;;67.40;27.82;;;;;;;10.62;76.55;99097.33;2211853;80;21017;-73
2021/09/10 05:06:52;;;;;;;56.20;23.33;;;;;;;10.81;76.34;99107.13;2212119;80;21488;-69
2021/09/10 05:09:53;;;;;;;38.03;17.10;;;;;;;11.01;76.16;99100.72;2212128;79;21055;-69
2021/09/10 05:12:54;;;;;;;36.88;16.70;;;;;;;11.23;75.79;99099.01;2211861;79;21536;-71
2021/09/10 05:15:57;;;;;;;41.80;17.00;;;;;;;11.48;75.63;99102.78;2212018;79;21084;-70
2021/09/10 05:18:59;;;;;;;47.67;19.15;;;;;;;11.73;75.38;99102.13;2211834;79;21064;-71
2021/09/10 05:22:00;;;;;;;37.50;16.07;;;;;;;12.02;75.34;99096.04;2211620;79;21069;-71
2021/09/10 05:25:02;;;;;;;49.18;20.82;;;;;;;12.27;74.97;99107.19;2211858;79;21607;-72
2021/09/10 05:28:03;;;;;;;46.48;19.30;;;;;;;12.49;74.82;99109.27;2211971;79;21068;-73
2021/09/10 05:31:05;;;;;;;46.97;20.07;;;;;;;12.74;74.58;99105.91;2212152;79;21037;-72
2021/09/10 05:34:06;;;;;;;46.88;19.48;;;;;;;13.00;73.85;99106.80;2212218;79;21040;-70
2021/09/10 05:37:08;;;;;;;37.90;16.87;;;;;;;13.21;73.87;99105.47;2212128;79;21024;-72
2021/09/10 05:40:09;;;;;;;39.87;16.77;;;;;;;13.44;73.84;99104.77;2212391;79;20973;-70
2021/09/10 05:43:11;;;;;;;36.57;17.07;;;;;;;13.76;73.70;99102.18;2212181;79;20981;-70
2021/09/10 05:46:12;;;;;;;42.33;19.37;;;;;;;14.04;73.20;99101.92;2212301;79;21579;-69
2021/09/10 05:49:14;;;;;;;53.02;22.82;;;;;;;14.32;72.85;99103.92;2212307;79;21021;-72
2021/09/10 05:52:15;;;;;;;46.03;18.77;;;;;;;14.61;72.79;99098.33;2212298;79;21523;-71
2021/09/10 05:55:16;;;;;;;39.43;17.87;;;;;;;14.89;71.93;99097.12;2212462;80;21375;-70
2021/09/10 05:58:18;;;;;;;34.67;15.03;;;;;;;15.23;71.53;99097.24;2212302;80;21029;-72
2021/09/10 06:01:19;;;;;;;29.07;12.73;;;;;;;15.48;71.71;99101.14;2212435;79;20938;-69
2021/09/10 06:04:21;;;;;;;26.48;10.08;;;;;;;15.68;70.44;99104.88;2212160;79;21041;-71
2021/09/10 06:07:23;;;;;;;27.63;9.87;;;;;;;15.92;69.75;99102.98;2212372;80;20981;-69
2021/09/10 06:10:25;;;;;;;26.93;10.85;;;;;;;16.23;69.33;99110.29;2212125;80;21052;-71
2021/09/10 06:13:26;;;;;;;25.90;10.27;;;;;;;16.54;69.26;99108.66;2211871;79;21542;-70
2021/09/10 06:16:28;;;;;;;27.40;9.67;;;;;;;16.77;67.95;99112.56;2212297;79;21247;-69
2021/09/10 06:19:29;;;;;;;24.23;8.88;;;;;;;17.00;68.41;99112.02;2211785;80;21053;-70
2021/09/10 06:22:31;;;;;;;25.43;9.40;;;;;;;17.28;67.43;99113.20;2212293;80;20974;-71
2021/09/10 06:25:33;;;;;;;27.58;10.28;;;;;;;17.48;66.63;99115.49;2212146;79;21036;-72
2021/09/10 06:28:34;;;;;;;26.67;9.77;;;;;;;18.07;65.79;99113.11;2212384;79;21028;-70
